Time;durP1;ratioP1;P1;durP2;ratioP2;P2;SDS_P1;SDS_P2;PMS_P1;PMS_P2;Temp;Humidity;BMP_temperature;BMP_pressure;BME280_temperature;BME280_humidity;BME280_pressure;Samples;Min_cycle;Max_cycle;Signal;HPM_P1;HPM_P2
2020/12/20 00:01:40;;;;;;;16.15;8.50;;;20.50;91.10;;;;;;5034981;28;20026;-54
2020/12/20 00:04:07;;;;;;;18.67;9.13;;;20.50;91.10;;;;;;5026203;28;20071;-54
2020/12/20 00:06:37;;;;;;;15.38;9.20;;;20.50;91.10;;;;;;5025322;28;20026;-53
2020/12/20 00:09:08;;;;;;;14.50;8.18;;;20.50;91.10;;;;;;5031294;28;20018;-54
2020/12/20 00:11:39;;;;;;;19.77;9.80;;;20.50;91.10;;;;;;5025988;28;20057;-54
2020/12/20 00:14:26;;;;;;;21.05;10.60;;;20.50;91.10;;;;;;5018933;28;20022;-53
2020/12/20 00:16:50;;;;;;;16.08;8.70;;;20.50;91.10;;;;;;5028635;28;20520;-54
2020/12/20 00:19:15;;;;;;;18.45;9.70;;;20.50;90.90;;;;;;5021913;28;20045;-54
2020/12/20 00:21:41;;;;;;;14.85;9.48;;;20.50;90.90;;;;;;5031211;28;20441;-54
2020/12/20 00:24:10;;;;;;;13.00;9.43;;;20.50;90.80;;;;;;5023522;28;20051;-54
2020/12/20 00:26:36;;;;;;;13.27;8.30;;;20.50;90.80;;;;;;5016881;28;20034;-53
2020/12/20 00:29:03;;;;;;;16.55;9.75;;;20.50;90.80;;;;;;5026428;28;20029;-53
2020/12/20 00:31:29;;;;;;;16.23;9.30;;;20.50;90.70;;;;;;5022837;28;20030;-54
2020/12/20 00:33:55;;;;;;;14.18;8.50;;;20.50;90.60;;;;;;5002613;28;20427;-54
2020/12/20 00:36:21;;;;;;;17.25;8.85;;;20.50;90.60;;;;;;5024172;28;20106;-55
2020/12/20 00:38:47;;;;;;;16.30;9.38;;;20.50;90.70;;;;;;5032233;28;20041;-53
2020/12/20 00:41:13;;;;;;;14.32;9.15;;;20.50;90.60;;;;;;5031784;28;20030;-54
2020/12/20 00:43:38;;;;;;;15.93;9.07;;;20.50;90.60;;;;;;5016658;28;20080;-54
2020/12/20 00:46:04;;;;;;;16.45;9.60;;;20.50;90.60;;;;;;5019895;28;20021;-53
2020/12/20 00:48:29;;;;;;;15.15;8.15;;;20.50;90.50;;;;;;5004445;28;20099;-55
2020/12/20 00:50:55;;;;;;;14.07;8.52;;;20.50;90.60;;;;;;5026494;28;20033;-53
2020/12/20 00:53:20;;;;;;;13.38;8.15;;;20.50;90.50;;;;;;5032695;28;20084;-54
2020/12/20 00:55:48;;;;;;;14.20;8.65;;;20.50;90.60;;;;;;5023922;28;20141;-53
2020/12/20 00:58:14;;;;;;;14.82;8.98;;;20.50;90.40;;;;;;5007025;28;20371;-54
2020/12/20 01:00:39;;;;;;;16.27;9.35;;;20.50;90.50;;;;;;5024572;28;20113;-53
2020/12/20 01:03:05;;;;;;;13.90;8.68;;;20.50;90.50;;;;;;5034578;28;20029;-53
2020/12/20 01:05:31;;;;;;;14.05;8.75;;;20.50;90.50;;;;;;5016026;28;20033;-53
2020/12/20 01:07:56;;;;;;;15.05;8.80;;;20.50;90.40;;;;;;5013802;28;20037;-54
2020/12/20 01:10:22;;;;;;;11.95;8.30;;;20.50;90.70;;;;;;5023688;28;20067;-54
2020/12/20 01:12:50;;;;;;;11.02;7.68;;;20.50;90.30;;;;;;5030126;28;20034;-54
2020/12/20 01:15:16;;;;;;;14.63;9.15;;;20.50;90.40;;;;;;5015154;28;20455;-54
2020/12/20 01:17:41;;;;;;;12.63;8.32;;;20.50;90.40;;;;;;5024433;28;20120;-54
2020/12/20 01:20:07;;;;;;;15.45;9.02;;;20.50;90.40;;;;;;5019301;28;20030;-54
2020/12/20 01:22:33;;;;;;;13.32;9.45;;;20.50;90.70;;;;;;5013596;28;20474;-53
2020/12/20 01:24:58;;;;;;;13.60;8.63;;;20.50;90.40;;;;;;5027018;28;20034;-54
2020/12/20 01:27:24;;;;;;;15.25;8.52;;;20.50;90.40;;;;;;5025222;28;20025;-54
2020/12/20 01:29:49;;;;;;;14.43;8.90;;;20.50;90.40;;;;;;5024941;28;20110;-54
2020/12/20 01:32:17;;;;;;;13.65;8.55;;;20.50;90.40;;;;;;5023018;28;20030;-55
2020/12/20 01:34:45;;;;;;;12.80;8.77;;;20.50;90.40;;;;;;5023419;28;20030;-54
2020/12/20 01:37:11;;;;;;;12.80;7.55;;;20.50;90.30;;;;;;5025209;28;20026;-54
2020/12/20 01:39:37;;;;;;;12.20;7.53;;;20.50;90.40;;;;;;5018372;28;20044;-54
2020/12/20 01:42:03;;;;;;;15.32;8.30;;;20.50;90.40;;;;;;5033233;28;20029;-53
2020/12/20 01:44:28;;;;;;;11.27;7.63;;;20.50;90.40;;;;;;5031709;28;20022;-55
2020/12/20 01:46:56;;;;;;;12.38;8.65;;;20.50;90.40;;;;;;5020884;28;20030;-54
2020/12/20 01:49:22;;;;;;;11.73;8.25;;;20.50;90.40;;;;;;5024107;28;20021;-54
2020/12/20 01:51:49;;;;;;;12.60;8.25;;;20.50;90.40;;;;;;5025708;28;20026;-54
2020/12/20 01:54:15;;;;;;;13.00;7.88;;;20.50;90.40;;;;;;5019102;28;20110;-54
2020/12/20 01:56:41;;;;;;;13.40;8.10;;;20.50;90.40;;;;;;5005023;28;20076;-54
2020/12/20 01:59:07;;;;;;;13.10;8.15;;;20.50;90.40;;;;;;5015577;28;20041;-55
2020/12/20 02:01:32;;;;;;;12.32;8.15;;;20.50;90.30;;;;;;5028881;28;20065;-55
2020/12/20 02:03:58;;;;;;;11.50;8.15;;;20.50;90.40;;;;;;5009415;28;20079;-54
2020/12/20 02:06:24;;;;;;;10.57;7.35;;;20.50;90.40;;;;;;5023687;28;20076;-54
2020/12/20 02:08:49;;;;;;;9.20;7.18;;;20.50;90.40;;;;;;5028729;28;20018;-54
2020/12/20 02:11:16;;;;;;;10.75;7.63;;;20.50;90.30;;;;;;5007689;28;20047;-54
2020/12/20 02:13:43;;;;;;;12.38;8.25;;;20.50;90.40;;;;;;5001447;28;20026;-54
2020/12/20 02:16:11;;;;;;;11.70;7.20;;;20.50;90.30;;;;;;5018107;28;20018;-54
2020/12/20 02:18:37;;;;;;;13.18;8.35;;;20.50;90.30;;;;;;5032324;28;20045;-54
2020/12/20 02:21:16;;;;;;;10.63;7.43;;;20.50;90.30;;;;;;5002593;28;20032;-53
2020/12/20 02:23:43;;;;;;;10.95;7.82;;;20.50;90.30;;;;;;5021860;28;20050;-53
2020/12/20 02:26:10;;;;;;;10.35;7.70;;;20.50;90.20;;;;;;5028017;28;20033;-54
2020/12/20 02:28:36;;;;;;;11.00;7.90;;;20.50;90.20;;;;;;5031625;28;20382;-54
2020/12/20 02:31:02;;;;;;;12.13;8.13;;;20.50;90.20;;;;;;5023290;28;20022;-54
2020/12/20 02:33:27;;;;;;;11.98;7.63;;;20.50;90.20;;;;;;5022618;28;20030;-54
2020/12/20 02:35:53;;;;;;;10.68;7.47;;;20.50;90.30;;;;;;5024303;28;20092;-54
2020/12/20 02:38:19;;;;;;;12.30;8.13;;;20.50;90.20;;;;;;5025249;28;20061;-53
2020/12/20 02:40:44;;;;;;;11.23;7.57;;;20.50;90.20;;;;;;5022108;28;20033;-54
2020/12/20 02:43:10;;;;;;;10.80;7.80;;;20.50;90.10;;;;;;5025535;28;20363;-54
2020/12/20 02:45:36;;;;;;;11.13;7.38;;;20.50;90.20;;;;;;5025243;28;20032;-54
2020/12/20 02:48:01;;;;;;;10.70;7.60;;;20.50;90.20;;;;;;5008440;28;20385;-54
2020/12/20 02:50:27;;;;;;;12.02;7.80;;;20.50;90.20;;;;;;5028048;28;20508;-54
2020/12/20 02:52:52;;;;;;;10.20;7.43;;;20.50;90.20;;;;;;5027636;28;20488;-54
2020/12/20 02:55:18;;;;;;;12.02;7.82;;;20.40;90.10;;;;;;5024689;28;20037;-54
2020/12/20 02:57:43;;;;;;;10.35;7.65;;;20.50;90.10;;;;;;5025352;28;20544;-54
2020/12/20 03:00:09;;;;;;;10.80;7.30;;;20.50;90.10;;;;;;5033019;28;20087;-53
2020/12/20 03:02:35;;;;;;;10.73;7.00;;;20.50;90.20;;;;;;5016675;28;20497;-54
2020/12/20 03:05:00;;;;;;;11.35;7.65;;;20.40;90.20;;;;;;5021316;28;20033;-54
2020/12/20 03:07:26;;;;;;;9.75;7.50;;;20.40;90.10;;;;;;5025503;28;20026;-54
2020/12/20 03:09:52;;;;;;;10.73;7.10;;;20.50;90.20;;;;;;5030907;28;20480;-54
2020/12/20 03:12:19;;;;;;;10.02;6.97;;;20.50;90.20;;;;;;5021982;28;20088;-55
2020/12/20 03:14:45;;;;;;;8.88;7.03;;;20.50;90.10;;;;;;5022045;28;20069;-54
2020/12/20 03:17:10;;;;;;;10.25;7.20;;;20.40;90.10;;;;;;5022613;28;20034;-54
2020/12/20 03:19:36;;;;;;;10.05;7.25;;;20.40;90.10;;;;;;5030657;28;20045;-54
2020/12/20 03:22:02;;;;;;;12.55;7.40;;;20.50;90.20;;;;;;5019177;28;20029;-54
2020/12/20 03:24:27;;;;;;;11.82;7.78;;;20.40;90.20;;;;;;5032578;28;20052;-54
2020/12/20 03:26:53;;;;;;;10.63;7.63;;;20.40;90.10;;;;;;5024063;28;20091;-54
2020/12/20 03:29:18;;;;;;;9.60;7.30;;;20.50;90.20;;;;;;5008356;28;20060;-54
2020/12/20 03:31:44;;;;;;;10.73;7.28;;;20.40;90.10;;;;;;5018725;28;20033;-55
2020/12/20 03:34:09;;;;;;;12.77;7.32;;;20.40;90.20;;;;;;5032469;28;20025;-54
2020/12/20 03:36:35;;;;;;;9.30;6.57;;;20.40;90.10;;;;;;5021465;28;20026;-54
2020/12/20 03:39:00;;;;;;;10.38;7.30;;;20.40;90.10;;;;;;5024730;28;20076;-54
2020/12/20 03:41:26;;;;;;;9.88;7.03;;;20.40;90.10;;;;;;5013165;28;20030;-54
2020/12/20 03:43:52;;;;;;;10.07;7.60;;;20.40;90.10;;;;;;5024171;28;20018;-54
2020/12/20 03:46:17;;;;;;;9.13;6.82;;;20.40;90.10;;;;;;5021671;28;20062;-54
2020/12/20 03:48:43;;;;;;;9.82;6.65;;;20.40;90.10;;;;;;5023583;28;20029;-54
2020/12/20 03:51:09;;;;;;;10.18;7.00;;;20.40;90.10;;;;;;5031625;28;20037;-54
2020/12/20 03:53:34;;;;;;;9.60;7.03;;;20.40;90.10;;;;;;5024703;28;20030;-54
2020/12/20 03:56:00;;;;;;;8.38;6.50;;;20.40;90.10;;;;;;5025995;28;20032;-55
2020/12/20 03:58:25;;;;;;;9.05;6.65;;;20.40;90.00;;;;;;5003403;28;20112;-54
2020/12/20 04:00:51;;;;;;;9.52;7.32;;;20.40;90.00;;;;;;5035776;28;20466;-54
2020/12/20 04:03:16;;;;;;;9.15;6.65;;;20.40;90.00;;;;;;5021932;28;20088;-54
2020/12/20 04:05:42;;;;;;;10.55;6.85;;;20.40;90.00;;;;;;5028275;28;20470;-54
2020/12/20 04:08:08;;;;;;;10.20;7.40;;;20.40;90.00;;;;;;5031677;28;20076;-54
2020/12/20 04:10:33;;;;;;;10.88;7.25;;;20.40;90.00;;;;;;5035322;28;20374;-54
2020/12/20 04:12:59;;;;;;;7.38;5.80;;;20.40;90.00;;;;;;5027524;28;20030;-54
2020/12/20 04:15:24;;;;;;;9.85;6.82;;;20.40;90.00;;;;;;5020682;28;20125;-54
2020/12/20 04:17:50;;;;;;;10.20;6.22;;;20.40;90.00;;;;;;5028458;28;20477;-53
2020/12/20 04:20:15;;;;;;;9.23;6.80;;;20.40;90.00;;;;;;5030525;28;20072;-53
2020/12/20 04:22:41;;;;;;;9.40;6.53;;;20.40;89.80;;;;;;5014720;28;20033;-54
2020/12/20 04:25:07;;;;;;;11.18;6.82;;;20.40;89.90;;;;;;5025146;28;20520;-54
2020/12/20 04:27:32;;;;;;;10.30;6.50;;;20.40;89.70;;;;;;5025389;28;20072;-54
2020/12/20 04:29:58;;;;;;;8.45;6.32;;;20.40;89.90;;;;;;5023609;28;20064;-53
2020/12/20 04:32:24;;;;;;;9.13;6.45;;;20.40;89.80;;;;;;5032752;28;20030;-53
2020/12/20 04:34:49;;;;;;;8.70;6.45;;;20.40;90.00;;;;;;5022678;28;20159;-54
2020/12/20 04:37:15;;;;;;;8.32;6.85;;;20.40;90.00;;;;;;5022025;28;20029;-54
2020/12/20 04:39:40;;;;;;;9.20;6.55;;;20.40;89.80;;;;;;5025961;28;20123;-53
2020/12/20 04:42:07;;;;;;;7.45;5.93;;;20.40;89.70;;;;;;5014763;28;20116;-54
2020/12/20 04:44:34;;;;;;;8.38;6.40;;;20.40;89.60;;;;;;5007225;28;20029;-55
2020/12/20 04:47:01;;;;;;;10.38;6.70;;;20.40;89.70;;;;;;5034045;28;20110;-54
2020/12/20 04:49:29;;;;;;;8.77;6.72;;;20.40;89.60;;;;;;5017816;28;20025;-54
2020/12/20 04:51:57;;;;;;;10.23;7.15;;;20.40;89.60;;;;;;5032990;28;20033;-54
2020/12/20 04:54:24;;;;;;;8.32;6.15;;;20.40;89.60;;;;;;5035061;28;20051;-55
2020/12/20 04:56:50;;;;;;;11.32;6.65;;;20.40;89.60;;;;;;5023371;28;20026;-54
2020/12/20 04:59:15;;;;;;;9.48;6.47;;;20.40;89.60;;;;;;5020818;28;20434;-55
2020/12/20 05:01:41;;;;;;;8.80;6.55;;;20.40;89.50;;;;;;5008587;28;20045;-54
2020/12/20 05:04:07;;;;;;;7.60;5.75;;;20.40;89.50;;;;;;5013687;28;20031;-54
2020/12/20 05:06:33;;;;;;;9.40;6.93;;;20.40;89.60;;;;;;5026243;28;20025;-54
2020/12/20 05:09:08;;;;;;;8.25;6.82;;;20.40;89.50;;;;;;5020863;28;20488;-54
2020/12/20 05:11:39;;;;;;;8.70;6.50;;;20.40;89.80;;;;;;5019595;28;20044;-54
2020/12/20 05:14:08;;;;;;;8.93;6.10;;;20.50;89.80;;;;;;5030245;28;20033;-55
2020/12/20 05:16:36;;;;;;;9.48;6.72;;;20.40;89.60;;;;;;5025536;28;20113;-54
2020/12/20 05:19:04;;;;;;;8.85;6.75;;;20.40;89.60;;;;;;5007455;28;20082;-54
2020/12/20 05:21:30;;;;;;;8.10;6.07;;;20.40;89.50;;;;;;5028196;28;20033;-54
2020/12/20 05:23:57;;;;;;;8.27;6.53;;;20.40;89.50;;;;;;5030414;28;20054;-54
2020/12/20 05:26:31;;;;;;;8.18;6.10;;;20.50;89.70;;;;;;5028160;28;20049;-54
2020/12/20 05:29:11;;;;;;;6.50;5.35;;;20.50;89.70;;;;;;5026382;28;20488;-56
2020/12/20 05:31:37;;;;;;;7.95;6.35;;;20.50;89.70;;;;;;5015050;28;20471;-54
2020/12/20 05:34:03;;;;;;;8.50;5.95;;;20.50;89.70;;;;;;5026939;28;20037;-54
2020/12/20 05:36:29;;;;;;;7.20;5.95;;;20.40;89.60;;;;;;5023837;28;20030;-54
2020/12/20 05:39:18;;;;;;;9.13;6.07;;;20.50;89.60;;;;;;5024933;28;20391;-54
2020/12/20 05:41:44;;;;;;;7.60;5.95;;;20.40;89.40;;;;;;5032201;28;20033;-53
2020/12/20 05:44:13;;;;;;;7.80;5.72;;;20.40;89.50;;;;;;5029136;28;20028;-53
2020/12/20 05:46:44;;;;;;;7.15;5.90;;;20.50;89.30;;;;;;5033695;28;20101;-54
2020/12/20 05:49:17;;;;;;;8.18;5.90;;;20.50;89.50;;;;;;5032889;28;20026;-54
2020/12/20 05:52:02;;;;;;;8.25;6.03;;;20.50;89.60;;;;;;5026307;28;20090;-54
2020/12/20 05:54:42;;;;;;;6.90;5.70;;;20.50;89.50;;;;;;5026776;28;20036;-54
2020/12/20 05:57:14;;;;;;;8.88;6.13;;;20.50;89.50;;;;;;5022406;28;20032;-55
2020/12/20 05:59:41;;;;;;;;;;;20.50;89.40;;;;;;5006873;28;20037;-54
2020/12/20 06:02:07;;;;;;;8.07;6.15;;;20.50;89.30;;;;;;5032594;28;19956;-55
2020/12/20 06:04:34;;;;;;;6.75;5.72;;;20.50;89.60;;;;;;5027129;28;20087;-54
2020/12/20 06:07:00;;;;;;;7.38;5.70;;;20.50;89.60;;;;;;5001852;28;20033;-54
2020/12/20 06:09:27;;;;;;;7.93;5.55;;;20.50;89.40;;;;;;5033036;28;20474;-54
2020/12/20 06:11:57;;;;;;;8.15;6.18;;;20.50;89.50;;;;;;5022872;28;20017;-55
2020/12/20 06:14:28;;;;;;;8.63;5.40;;;20.50;89.60;;;;;;5026545;28;20036;-54
2020/12/20 06:17:14;;;;;;;7.03;5.57;;;20.50;89.30;;;;;;5014368;28;20076;-54
2020/12/20 06:20:00;;;;;;;8.18;5.68;;;20.50;89.40;;;;;;5014048;28;20088;-55
2020/12/20 06:22:31;;;;;;;7.07;5.57;;;20.50;89.20;;;;;;5030081;28;20045;-55
2020/12/20 06:25:07;;;;;;;7.05;5.32;;;20.50;89.50;;;;;;5025315;28;20129;-55
2020/12/20 06:27:34;;;;;;;7.05;5.65;;;20.50;89.40;;;;;;5026722;28;20057;-54
2020/12/20 06:30:03;;;;;;;6.75;5.60;;;20.50;89.50;;;;;;5026310;28;20060;-55
2020/12/20 06:32:51;;;;;;;9.57;6.05;;;20.50;89.40;;;;;;5019246;28;20027;-55
2020/12/20 06:35:26;;;;;;;6.57;5.07;;;20.50;89.30;;;;;;5021127;28;20068;-54
2020/12/20 06:37:52;;;;;;;6.35;5.32;;;20.50;89.30;;;;;;5017207;28;20080;-54
2020/12/20 06:40:40;;;;;;;7.57;5.00;;;20.50;89.30;;;;;;5022685;28;20490;-55
2020/12/20 06:43:06;;;;;;;6.63;5.43;;;20.50;89.30;;;;;;5027982;28;20470;-54
2020/12/20 06:45:40;;;;;;;7.53;5.13;;;20.50;89.30;;;;;;5025873;28;20038;-54
2020/12/20 06:48:08;;;;;;;7.13;5.35;;;20.50;89.30;;;;;;5027446;28;20018;-55
2020/12/20 06:50:43;;;;;;;6.72;5.88;;;20.50;89.30;;;;;;5027908;28;20029;-55
2020/12/20 06:53:09;;;;;;;6.07;4.95;;;20.50;89.20;;;;;;5021179;28;20021;-55
2020/12/20 06:55:35;;;;;;;7.30;5.30;;;20.50;89.10;;;;;;5023627;28;20370;-54
2020/12/20 06:58:12;;;;;;;6.63;5.25;;;20.50;89.30;;;;;;5022791;28;20069;-54
2020/12/20 07:00:55;;;;;;;6.78;5.38;;;20.50;89.10;;;;;;5012119;28;20030;-54
2020/12/20 07:03:21;;;;;;;6.15;5.20;;;20.50;89.10;;;;;;5024129;28;20030;-54
2020/12/20 07:05:53;;;;;;;6.63;4.55;;;20.60;89.00;;;;;;5032668;28;20029;-54
2020/12/20 07:08:23;;;;;;;7.30;4.85;;;20.50;89.20;;;;;;5028076;28;20033;-54
2020/12/20 07:10:54;;;;;;;5.53;4.82;;;20.60;89.20;;;;;;5025974;28;20040;-54
2020/12/20 07:13:33;;;;;;;6.18;4.80;;;20.60;89.10;;;;;;5024319;28;20413;-55
2020/12/20 07:16:15;;;;;;;5.13;4.63;;;20.60;88.90;;;;;;5025808;28;20038;-54
2020/12/20 07:18:56;;;;;;;7.30;4.93;;;20.60;89.10;;;;;;5027049;28;20478;-54
2020/12/20 07:21:22;;;;;;;5.55;4.18;;;20.50;89.00;;;;;;5023233;28;20025;-55
2020/12/20 07:23:52;;;;;;;6.25;5.05;;;20.50;89.00;;;;;;5024186;28;20591;-54
2020/12/20 07:26:18;;;;;;;6.07;4.70;;;20.60;89.10;;;;;;5016756;28;20487;-54
2020/12/20 07:28:44;;;;;;;6.22;4.80;;;20.60;89.10;;;;;;5032936;28;20079;-54
2020/12/20 07:31:20;;;;;;;6.82;4.70;;;20.60;89.10;;;;;;5025060;28;20029;-54
2020/12/20 07:33:47;;;;;;;6.45;4.60;;;20.50;89.00;;;;;;5025768;28;20026;-53
2020/12/20 07:36:13;;;;;;;6.00;4.88;;;20.60;89.00;;;;;;5029086;28;20029;-54
2020/12/20 07:38:39;;;;;;;7.50;5.53;;;20.60;89.10;;;;;;5034621;28;20044;-55
2020/12/20 07:41:06;;;;;;;5.13;4.43;;;20.60;88.90;;;;;;5008042;28;20172;-54
2020/12/20 07:43:32;;;;;;;5.20;4.50;;;20.60;88.80;;;;;;5014135;28;20033;-54
2020/12/20 07:46:03;;;;;;;7.15;5.20;;;20.50;88.80;;;;;;5026972;28;20105;-54
2020/12/20 07:48:29;;;;;;;6.18;4.93;;;20.60;89.10;;;;;;5035210;28;20497;-54
2020/12/20 07:51:21;;;;;;;6.13;4.90;;;20.60;88.70;;;;;;5021042;28;20029;-54
2020/12/20 07:53:51;;;;;;;5.72;4.90;;;20.60;88.70;;;;;;5018449;28;20022;-55
2020/12/20 07:56:32;;;;;;;6.30;4.78;;;20.50;88.90;;;;;;5011607;28;20030;-54
2020/12/20 07:58:59;;;;;;;5.55;4.75;;;20.60;89.00;;;;;;5027379;28;20050;-53
2020/12/20 08:01:26;;;;;;;6.50;4.50;;;20.60;88.80;;;;;;5031544;28;20481;-54
2020/12/20 08:04:05;;;;;;;6.13;4.72;;;20.50;88.60;;;;;;5023524;28;20029;-55
2020/12/20 08:06:37;;;;;;;6.30;4.57;;;20.60;88.60;;;;;;5020148;28;20030;-54
2020/12/20 08:09:07;;;;;;;6.80;4.65;;;20.50;88.80;;;;;;5024189;28;20025;-54
2020/12/20 08:11:34;;;;;;;6.18;4.95;;;20.60;88.70;;;;;;5029141;28;20036;-54
2020/12/20 08:14:20;;;;;;;6.30;4.07;;;20.50;88.70;;;;;;5022061;28;20453;-54
2020/12/20 08:16:47;;;;;;;7.00;5.00;;;20.60;88.90;;;;;;5016574;28;20022;-54
2020/12/20 08:19:28;;;;;;;7.93;4.93;;;20.60;88.70;;;;;;5026336;28;20043;-54
2020/12/20 08:22:04;;;;;;;5.82;4.68;;;20.60;88.70;;;;;;5016251;28;20026;-54
2020/12/20 08:24:48;;;;;;;5.63;4.55;;;20.50;88.70;;;;;;5007884;28;20490;-54
2020/12/20 08:27:19;;;;;;;5.70;4.82;;;20.50;88.60;;;;;;5028475;28;20056;-54
2020/12/20 08:29:46;;;;;;;6.00;4.63;;;20.60;88.70;;;;;;5029620;28;20426;-54
2020/12/20 08:32:14;;;;;;;7.75;4.55;;;20.60;88.50;;;;;;5016305;28;20018;-54
2020/12/20 08:34:40;;;;;;;5.70;4.40;;;20.50;88.50;;;;;;5024810;28;20117;-54
2020/12/20 08:37:12;;;;;;;5.90;4.68;;;20.60;88.70;;;;;;5010048;28;20057;-54
2020/12/20 08:39:38;;;;;;;6.28;4.80;;;20.50;88.60;;;;;;5031830;28;20049;-54
2020/12/20 08:42:06;;;;;;;6.65;3.92;;;20.60;89.80;;;;;;5025336;28;20463;-54
2020/12/20 08:44:32;;;;;;;6.18;3.92;;;20.60;90.30;;;;;;5032915;28;20510;-54
2020/12/20 08:47:11;;;;;;;12.18;4.00;;;20.60;90.50;;;;;;5033666;28;20064;-54
2020/12/20 08:49:41;;;;;;;5.28;3.85;;;20.60;90.40;;;;;;5024006;28;20033;-54
2020/12/20 08:52:12;;;;;;;7.80;3.92;;;20.60;90.50;;;;;;5029400;28;20026;-54
2020/12/20 08:54:39;;;;;;;6.38;3.63;;;20.60;91.30;;;;;;5007880;28;20127;-54
2020/12/20 08:57:12;;;;;;;5.15;3.50;;;20.60;91.20;;;;;;5010978;28;20381;-54
2020/12/20 08:59:45;;;;;;;8.07;3.78;;;20.60;91.20;;;;;;5020252;28;20095;-54
2020/12/20 09:02:37;;;;;;;6.40;3.70;;;20.60;91.10;;;;;;5013870;28;20018;-54
2020/12/20 09:05:06;;;;;;;8.43;3.97;;;20.60;91.10;;;;;;5023333;28;20042;-54
2020/12/20 09:07:46;;;;;;;5.35;3.70;;;20.60;91.00;;;;;;5002016;28;20030;-54
2020/12/20 09:10:15;;;;;;;5.25;3.65;;;20.60;90.90;;;;;;5026566;28;20048;-54
2020/12/20 09:12:51;;;;;;;9.65;4.28;;;20.60;91.00;;;;;;5033974;28;20536;-54
2020/12/20 09:15:18;;;;;;;5.40;3.70;;;20.60;91.10;;;;;;5023313;28;20056;-54
2020/12/20 09:17:46;;;;;;;6.82;3.50;;;20.60;90.80;;;;;;5021836;28;20026;-54
2020/12/20 09:20:15;;;;;;;7.93;4.13;;;20.60;91.00;;;;;;5012550;28;20060;-55
2020/12/20 09:22:43;;;;;;;6.13;4.00;;;20.60;90.80;;;;;;5034735;28;20351;-55
2020/12/20 09:25:13;;;;;;;6.55;3.70;;;20.60;90.90;;;;;;5018010;28;20054;-54
2020/12/20 09:27:51;;;;;;;7.25;3.75;;;20.60;90.90;;;;;;5023863;28;20029;-55
2020/12/20 09:30:17;;;;;;;6.50;3.72;;;20.60;90.70;;;;;;5029500;28;20355;-54
2020/12/20 09:32:42;;;;;;;6.70;3.35;;;20.60;90.80;;;;;;5033816;28;20056;-54
2020/12/20 09:35:09;;;;;;;8.35;3.90;;;20.60;91.30;;;;;;5024520;28;20422;-54
2020/12/20 09:37:41;;;;;;;7.43;3.92;;;20.60;90.80;;;;;;5019558;28;20032;-53
2020/12/20 09:40:08;;;;;;;8.50;4.03;;;20.60;90.90;;;;;;5024913;28;20470;-53
2020/12/20 09:42:42;;;;;;;5.00;3.55;;;20.60;91.10;;;;;;5033834;28;20029;-54
2020/12/20 09:45:09;;;;;;;5.13;3.78;;;20.60;90.70;;;;;;5017457;28;20026;-55
2020/12/20 09:47:43;;;;;;;6.55;4.13;;;20.60;91.10;;;;;;5024470;28;20026;-54
2020/12/20 09:50:11;;;;;;;7.95;4.88;;;20.60;91.30;;;;;;5029149;28;20025;-54
2020/12/20 09:52:37;;;;;;;6.82;4.07;;;20.60;91.30;;;;;;5028915;28;20027;-54
2020/12/20 09:55:06;;;;;;;6.80;3.95;;;20.60;91.30;;;;;;5017486;28;20034;-54
2020/12/20 09:57:32;;;;;;;7.43;4.45;;;20.60;91.20;;;;;;5023825;28;20033;-55
2020/12/20 09:59:58;;;;;;;5.63;4.63;;;20.60;91.40;;;;;;5025443;28;20459;-54
2020/12/20 10:02:24;;;;;;;7.03;4.80;;;20.60;91.40;;;;;;5027760;28;20488;-55
2020/12/20 10:04:49;;;;;;;10.00;4.57;;;20.60;91.40;;;;;;5023007;28;20104;-54
2020/12/20 10:07:15;;;;;;;7.88;4.70;;;20.60;91.50;;;;;;5023620;28;20105;-54
2020/12/20 10:09:41;;;;;;;7.38;4.85;;;20.60;91.20;;;;;;5028090;28;20039;-54
2020/12/20 10:12:07;;;;;;;7.18;4.88;;;20.60;91.40;;;;;;5023651;28;20052;-55
2020/12/20 10:14:33;;;;;;;6.40;4.82;;;20.60;91.20;;;;;;5028076;28;20021;-54
2020/12/20 10:16:59;;;;;;;6.80;4.43;;;20.60;90.90;;;;;;5022375;28;20053;-54
2020/12/20 10:19:25;;;;;;;14.80;4.40;;;20.70;91.10;;;;;;5024318;28;20490;-54
2020/12/20 10:21:51;;;;;;;14.80;5.28;;;20.70;91.40;;;;;;5026108;28;20026;-54
2020/12/20 10:24:23;;;;;;;7.95;5.07;;;20.80;91.30;;;;;;5030222;28;20103;-59
2020/12/20 10:26:49;;;;;;;13.85;5.85;;;20.70;90.00;;;;;;5021375;28;20034;-58
2020/12/20 10:29:17;;;;;;;13.20;6.15;;;20.60;85.30;;;;;;5014678;28;20390;-58
2020/12/20 10:31:44;;;;;;;11.23;5.57;;;20.60;83.40;;;;;;5024399;28;20383;-58
2020/12/20 10:34:10;;;;;;;12.05;6.05;;;20.60;82.00;;;;;;5013335;28;20086;-58
2020/12/20 10:36:36;;;;;;;11.88;5.72;;;20.60;78.90;;;;;;5030083;28;20507;-59
2020/12/20 10:39:07;;;;;;;7.78;4.65;;;20.60;80.00;;;;;;5033242;28;20035;-58
2020/12/20 10:41:37;;;;;;;14.43;4.93;;;20.60;82.50;;;;;;5001605;28;20025;-58
2020/12/20 10:44:04;;;;;;;10.68;5.28;;;20.60;84.00;;;;;;5032346;28;20359;-58
2020/12/20 10:46:30;;;;;;;10.82;5.00;;;20.50;84.70;;;;;;5019256;28;20026;-58
2020/12/20 10:48:56;;;;;;;13.80;5.25;;;20.50;85.10;;;;;;5019844;28;20355;-59
2020/12/20 10:51:22;;;;;;;7.43;5.50;;;20.50;85.60;;;;;;5026313;28;20414;-59
2020/12/20 10:53:47;;;;;;;11.90;5.05;;;20.50;86.00;;;;;;5024788;28;20032;-59
2020/12/20 10:56:16;;;;;;;14.30;5.45;;;20.50;86.00;;;;;;5021487;28;20029;-59
2020/12/20 10:58:42;;;;;;;14.25;7.05;;;20.50;85.10;;;;;;5026293;28;20085;-59
2020/12/20 11:01:08;;;;;;;16.30;6.35;;;20.50;81.20;;;;;;5026829;28;20018;-59
2020/12/20 11:03:34;;;;;;;14.20;5.70;;;20.50;76.80;;;;;;5026412;28;20052;-59
2020/12/20 11:06:00;;;;;;;8.48;4.70;;;20.50;80.80;;;;;;5008199;28;20471;-58
2020/12/20 11:08:26;;;;;;;9.07;5.63;;;20.40;78.40;;;;;;5031859;28;20033;-58
2020/12/20 11:10:53;;;;;;;8.02;5.13;;;20.50;77.70;;;;;;5025469;28;20025;-58
2020/12/20 11:13:24;;;;;;;8.73;5.20;;;20.40;75.90;;;;;;5026930;28;20026;-58
2020/12/20 11:15:49;;;;;;;8.95;4.45;;;20.40;74.40;;;;;;5036051;28;20044;-58
2020/12/20 11:18:15;;;;;;;6.75;4.78;;;20.40;75.60;;;;;;5021617;28;20042;-59
2020/12/20 11:20:41;;;;;;;7.80;4.88;;;20.40;74.20;;;;;;5036840;28;20470;-57
2020/12/20 11:23:06;;;;;;;7.45;4.95;;;20.40;73.10;;;;;;5023380;28;20025;-58
2020/12/20 11:25:32;;;;;;;6.45;4.80;;;20.40;73.40;;;;;;5035911;28;20033;-58
2020/12/20 11:27:58;;;;;;;11.38;4.50;;;20.40;73.70;;;;;;5028189;28;20099;-58
2020/12/20 11:30:23;;;;;;;8.10;4.90;;;20.40;73.10;;;;;;5023035;28;20026;-57
2020/12/20 11:32:49;;;;;;;6.57;4.78;;;20.40;71.80;;;;;;5007665;28;20038;-57
2020/12/20 11:35:16;;;;;;;11.15;4.55;;;20.40;73.20;;;;;;5013045;28;20021;-60
2020/12/20 11:37:43;;;;;;;8.73;4.28;;;20.40;76.10;;;;;;5024602;28;20473;-58
2020/12/20 11:40:09;;;;;;;7.28;4.07;;;20.40;77.40;;;;;;5027210;28;20034;-58
2020/12/20 11:42:35;;;;;;;6.65;4.10;;;20.40;78.50;;;;;;5026236;28;20029;-58
2020/12/20 11:45:00;;;;;;;10.60;4.07;;;20.40;78.70;;;;;;5033695;28;20032;-58
2020/12/20 11:47:26;;;;;;;10.70;4.57;;;20.40;79.60;;;;;;5030183;28;20468;-58
2020/12/20 11:49:52;;;;;;;12.50;4.47;;;20.40;79.70;;;;;;5025484;28;20458;-58
2020/12/20 11:52:17;;;;;;;9.15;4.72;;;20.40;79.90;;;;;;5022148;28;20410;-58
2020/12/20 11:54:43;;;;;;;8.57;4.43;;;20.40;80.30;;;;;;5028695;28;20030;-58
2020/12/20 11:57:09;;;;;;;12.32;4.95;;;20.40;80.60;;;;;;5030721;28;20026;-58
2020/12/20 11:59:34;;;;;;;8.07;3.90;;;20.40;80.70;;;;;;5025273;28;20072;-58
2020/12/20 12:02:00;;;;;;;7.15;4.20;;;20.40;81.10;;;;;;5019663;28;20103;-58
2020/12/20 12:04:27;;;;;;;7.03;4.60;;;20.40;81.30;;;;;;5032227;28;20033;-58
2020/12/20 12:06:52;;;;;;;7.07;4.60;;;20.40;81.60;;;;;;5012295;28;20148;-58
2020/12/20 12:09:18;;;;;;;8.13;4.05;;;20.40;82.10;;;;;;5022238;28;20120;-58
2020/12/20 12:11:44;;;;;;;7.35;4.50;;;20.40;82.30;;;;;;5011210;28;20113;-58
2020/12/20 12:14:09;;;;;;;7.93;4.38;;;20.40;82.30;;;;;;5006539;28;20022;-57
2020/12/20 12:16:35;;;;;;;7.88;3.78;;;20.40;82.30;;;;;;5032658;28;20037;-57
2020/12/20 12:19:00;;;;;;;6.93;4.18;;;20.40;82.30;;;;;;5023758;28;20474;-57
2020/12/20 12:21:26;;;;;;;7.00;3.92;;;20.50;82.70;;;;;;5028997;28;20040;-57
2020/12/20 12:23:52;;;;;;;8.35;4.13;;;20.50;82.70;;;;;;5030268;28;20099;-57
2020/12/20 12:26:18;;;;;;;9.32;4.75;;;20.40;82.80;;;;;;5030304;28;20442;-58
2020/12/20 12:28:44;;;;;;;6.50;4.22;;;20.50;83.00;;;;;;5032707;28;20116;-58
2020/12/20 12:31:10;;;;;;;6.43;4.35;;;20.50;83.50;;;;;;5028719;28;20026;-58
2020/12/20 12:33:35;;;;;;;9.32;4.32;;;20.50;83.80;;;;;;5027961;28;20059;-58
2020/12/20 12:36:03;;;;;;;7.50;5.22;;;20.50;83.70;;;;;;5029376;28;20065;-58
2020/12/20 12:38:28;;;;;;;7.32;4.43;;;20.50;83.40;;;;;;5030509;28;20042;-58
2020/12/20 12:40:54;;;;;;;8.38;4.65;;;20.50;84.30;;;;;;5030949;28;20132;-58
2020/12/20 12:43:20;;;;;;;7.43;4.82;;;20.50;85.00;;;;;;5006504;28;20068;-58
2020/12/20 12:45:45;;;;;;;9.25;4.57;;;20.50;85.10;;;;;;5022198;28;20037;-58
2020/12/20 12:48:11;;;;;;;7.38;4.32;;;20.50;85.70;;;;;;5024277;28;20064;-58